createdAt,value
2022-08-22T00:02:14.135Z,99812.75
2022-08-22T00:02:41.976Z,99766.82
2022-08-22T00:02:46.809Z,99777.80
2022-08-22T00:03:03.230Z,99778.27
2022-08-22T00:03:06.481Z,99803.73
2022-08-22T00:03:10.808Z,99804.74
2022-08-22T00:07:30.629Z,99807.23
2022-08-22T00:12:52.959Z,99809.41
2022-08-22T00:18:05.825Z,99813.33
2022-08-22T00:23:11.762Z,99814.02
2022-08-22T00:28:41.803Z,99818.83
2022-08-22T00:33:51.191Z,99823.98
2022-08-22T00:39:16.521Z,99827.28
2022-08-22T00:44:41.334Z,99829.77
2022-08-22T00:50:08.181Z,99831.36
2022-08-22T00:55:23.671Z,99833.53
2022-08-22T01:00:34.360Z,99835.25
2022-08-22T01:06:07.110Z,99839.64
2022-08-22T01:11:23.163Z,99844.80
2022-08-22T01:16:40.906Z,99842.23
2022-08-22T01:22:13.942Z,99843.14
2022-08-22T01:27:35.859Z,99841.54
2022-08-22T01:32:44.967Z,99841.52
2022-08-22T01:37:58.656Z,99844.91
2022-08-22T01:43:05.175Z,99844.20
2022-08-22T01:48:17.412Z,99846.23
2022-08-22T01:53:31.155Z,99841.80
2022-08-22T01:58:43.679Z,99843.50
2022-08-22T02:04:34.198Z,99847.33
2022-08-22T02:09:48.978Z,99845.88
2022-08-22T02:15:00.787Z,99847.23
2022-08-22T02:20:20.463Z,99845.97
2022-08-22T02:25:29.219Z,99852.13
2022-08-22T02:31:01.099Z,99851.46
2022-08-22T02:36:25.504Z,99854.39
2022-08-22T02:41:28.917Z,99850.53
2022-08-22T02:46:51.684Z,99846.44
2022-08-22T02:52:43.533Z,99847.95
2022-08-22T02:58:03.433Z,99851.53
2022-08-22T03:03:22.309Z,99851.25
2022-08-22T03:08:59.412Z,99849.04
2022-08-22T03:14:14.703Z,99852.45
2022-08-22T03:19:32.042Z,99855.52
2022-08-22T03:24:43.451Z,99862.70
2022-08-22T03:30:01.402Z,99862.89
2022-08-22T03:35:10.208Z,99869.91
2022-08-22T03:40:34.950Z,99871.89
2022-08-22T03:45:48.704Z,99873.82
2022-08-22T03:51:23.453Z,99875.98
2022-08-22T03:56:38.595Z,99877.64
2022-08-22T04:01:47.894Z,99871.42
2022-08-22T04:07:27.973Z,99867.69
2022-08-22T04:13:12.912Z,99872.13
2022-08-22T04:18:34.696Z,99871.67
2022-08-22T04:23:53.376Z,99874.39
2022-08-22T04:29:03.436Z,99881.60
2022-08-22T04:34:21.185Z,99881.66
2022-08-22T04:40:07.351Z,99886.60
2022-08-22T04:45:36.311Z,99891.02
2022-08-22T04:50:55.054Z,99887.27
2022-08-22T04:56:23.825Z,99893.95
2022-08-22T05:01:53.257Z,99898.30
2022-08-22T05:07:09.266Z,99900.73
2022-08-22T05:12:18.882Z,99905.98
2022-08-22T05:17:28.776Z,99910.36
2022-08-22T05:22:37.485Z,99916.30
2022-08-22T05:27:46.738Z,99918.05
2022-08-22T05:33:02.232Z,99918.80
2022-08-22T05:38:08.606Z,99922.98
2022-08-22T05:43:13.255Z,99924.03
2022-08-22T05:48:25.783Z,99927.59
2022-08-22T05:53:43.586Z,99923.88
2022-08-22T05:58:56.675Z,99926.45
2022-08-22T06:03:59.882Z,99929.08
2022-08-22T06:09:35.542Z,99932.98
2022-08-22T06:15:00.163Z,99928.34
2022-08-22T06:20:09.100Z,99931.83
2022-08-22T06:25:23.167Z,99932.37
2022-08-22T06:30:28.739Z,99934.77
2022-08-22T06:35:56.620Z,99932.75
2022-08-22T06:41:06.075Z,99935.16
2022-08-22T06:46:13.785Z,99939.57
2022-08-22T06:51:19.744Z,99939.90
2022-08-22T06:56:29.851Z,99941.19
2022-08-22T07:01:47.020Z,99950.13
2022-08-22T07:06:51.946Z,99953.86
2022-08-22T07:12:01.574Z,99958.35
2022-08-22T07:17:10.617Z,99959.25
2022-08-22T07:22:15.977Z,99962.73
2022-08-22T07:27:52.852Z,99961.38
2022-08-22T07:32:56.183Z,99966.79
2022-08-22T07:38:33.595Z,99968.11
2022-08-22T07:43:46.386Z,99966.58
2022-08-22T07:49:10.073Z,99974.55
2022-08-22T07:54:20.864Z,99985.58
2022-08-22T07:59:25.550Z,99983.21
2022-08-22T08:04:39.954Z,99983.89
2022-08-22T08:09:53.185Z,99981.16
2022-08-22T08:14:57.214Z,99983.29
2022-08-22T08:20:06.507Z,99982.96
2022-08-22T08:25:16.712Z,99982.20
2022-08-22T08:30:25.039Z,99985.92
2022-08-22T08:36:02.062Z,99982.05
2022-08-22T08:41:11.782Z,99981.33
2022-08-22T08:46:33.203Z,99985.77
2022-08-22T08:52:00.878Z,99983.77
2022-08-22T08:57:06.997Z,99984.02
2022-08-22T09:02:42.498Z,99983.67
2022-08-22T09:08:01.689Z,99975.38
2022-08-22T09:13:34.518Z,99975.30
2022-08-22T09:19:11.530Z,99971.13
2022-08-22T09:24:23.946Z,99970.50
2022-08-22T09:29:54.897Z,99974.66
2022-08-22T09:35:39.203Z,99981.77
2022-08-22T09:41:09.037Z,99984.20
2022-08-22T09:46:21.471Z,99990.27
2022-08-22T09:51:52.564Z,99987.48
2022-08-22T09:57:13.898Z,99988.13
2022-08-22T10:02:43.626Z,99989.69
2022-08-22T10:08:01.028Z,99990.33
2022-08-22T10:13:16.322Z,99993.02
2022-08-22T10:18:53.817Z,99989.64
2022-08-22T10:24:06.983Z,100001.66
2022-08-22T10:29:32.403Z,100005.92
2022-08-22T10:34:46.159Z,100001.63
2022-08-22T10:40:13.526Z,99998.52
2022-08-22T10:45:35.495Z,100009.44
2022-08-22T10:50:50.363Z,100015.86
2022-08-22T10:56:04.018Z,100014.64
2022-08-22T11:01:37.876Z,100016.75
2022-08-22T11:06:47.204Z,100013.86
2022-08-22T11:12:12.897Z,100008.39
2022-08-22T11:17:30.860Z,100007.67
2022-08-22T11:22:42.492Z,100007.42
2022-08-22T11:28:33.214Z,100018.06
2022-08-22T11:33:47.150Z,100018.16
2022-08-22T11:39:06.553Z,100023.55
2022-08-22T11:44:22.879Z,100020.45
2022-08-22T11:50:13.813Z,100024.52
2022-08-22T11:55:38.619Z,100029.27
2022-08-22T12:00:58.727Z,100032.73
2022-08-22T12:06:20.980Z,100026.31
2022-08-22T12:11:56.958Z,100028.73
2022-08-22T12:17:51.054Z,100024.06
2022-08-22T12:23:04.438Z,100019.87
2022-08-22T12:28:07.818Z,100019.42
2022-08-22T12:33:22.071Z,100022.29
2022-08-22T12:38:31.241Z,100023.54
2022-08-22T12:43:42.544Z,100022.65
2022-08-22T12:49:07.680Z,100020.05
2022-08-22T12:54:57.558Z,100023.55
2022-08-22T13:00:29.362Z,100019.48
2022-08-22T13:05:41.022Z,100017.45
2022-08-22T13:10:52.853Z,100014.48
2022-08-22T13:16:08.451Z,100003.21
2022-08-22T13:21:17.338Z,100005.89
2022-08-22T13:26:33.134Z,100013.33
2022-08-22T13:31:41.424Z,100015.41
2022-08-22T13:36:51.837Z,100012.22
2022-08-22T13:41:59.531Z,100013.06
2022-08-22T13:47:16.242Z,100006.73
2022-08-22T13:52:30.393Z,100008.91
2022-08-22T13:57:36.892Z,100008.52
2022-08-22T14:03:05.553Z,100004.78
2022-08-22T14:08:21.303Z,100005.67
2022-08-22T14:13:36.849Z,100004.09
2022-08-22T14:18:48.300Z,99999.99
2022-08-22T14:23:55.071Z,99986.63
2022-08-22T14:29:01.582Z,99985.91
2022-08-22T14:34:13.698Z,99985.14
2022-08-22T14:39:42.885Z,99986.15
2022-08-22T14:44:49.909Z,99979.87
2022-08-22T14:49:56.702Z,99980.48
2022-08-22T14:55:18.038Z,99980.10
2022-08-22T15:00:33.530Z,99979.80
2022-08-22T15:05:51.933Z,99983.17
2022-08-22T15:11:25.597Z,99993.38
2022-08-22T15:16:40.537Z,99988.63
2022-08-22T15:21:45.963Z,99991.84
2022-08-22T15:26:55.406Z,99996.48
2022-08-22T15:32:02.619Z,99997.77
2022-08-22T15:37:16.670Z,99998.27
2022-08-22T15:42:27.394Z,100006.89
2022-08-22T15:47:47.059Z,100004.79
2022-08-22T15:53:19.561Z,100006.62
2022-08-22T15:58:25.287Z,100005.02
2022-08-22T16:03:33.607Z,100002.08
2022-08-22T16:08:36.965Z,99997.14
2022-08-22T16:13:43.681Z,99994.84
2022-08-22T16:18:47.065Z,99987.42
2022-08-22T16:23:50.274Z,99983.92
2022-08-22T16:29:05.772Z,99987.53
2022-08-22T16:34:18.490Z,99990.90
2022-08-22T16:39:21.816Z,99995.00
2022-08-22T16:44:27.918Z,99999.08
2022-08-22T16:49:35.604Z,100000.39
2022-08-22T16:54:46.458Z,99996.95
2022-08-22T17:00:22.772Z,99989.30
2022-08-22T17:05:41.345Z,99988.48
2022-08-22T17:11:02.781Z,99986.61
2022-08-22T17:16:21.351Z,99991.36
2022-08-22T17:21:32.340Z,99999.27
2022-08-22T17:26:41.388Z,100000.09
2022-08-22T17:32:14.904Z,99994.96
2022-08-22T17:37:37.163Z,99994.73
2022-08-22T17:43:00.137Z,99999.11
2022-08-22T17:48:34.674Z,99998.80
2022-08-22T17:54:06.350Z,99994.91
2022-08-22T17:59:22.157Z,99998.95
2022-08-22T18:04:35.501Z,99999.65
2022-08-22T18:09:45.979Z,100012.17
2022-08-22T18:14:52.975Z,100017.13
2022-08-22T18:20:29.366Z,100017.55
2022-08-22T18:25:42.198Z,100016.73
2022-08-22T18:30:54.825Z,100019.95
2022-08-22T18:36:15.441Z,100023.89
2022-08-22T18:41:28.073Z,100026.45
2022-08-22T18:46:39.573Z,100022.05
2022-08-22T18:51:44.118Z,100023.80
2022-08-22T18:57:02.142Z,100020.56
2022-08-22T19:02:33.929Z,100020.86
2022-08-22T19:07:56.717Z,100011.87
2022-08-22T19:13:19.869Z,100011.99
2022-08-22T19:18:29.957Z,100007.09
2022-08-22T19:23:33.620Z,100003.08
2022-08-22T19:28:39.431Z,99998.18
2022-08-22T19:34:08.775Z,100001.82
2022-08-22T19:39:43.340Z,100006.23
2022-08-22T19:45:08.449Z,100005.86
2022-08-22T19:50:27.218Z,100002.02
2022-08-22T19:55:38.202Z,100000.33
2022-08-22T20:00:53.196Z,100010.03
2022-08-22T20:06:43.002Z,100017.02
2022-08-22T20:12:15.146Z,100019.33
2022-08-22T20:17:27.500Z,100011.88
2022-08-22T20:22:39.922Z,100013.64
2022-08-22T20:27:50.988Z,100011.81
2022-08-22T20:33:00.918Z,100005.70
2022-08-22T20:38:08.347Z,100002.23
2022-08-22T20:43:34.367Z,100005.13
2022-08-22T20:48:47.946Z,100005.80
2022-08-22T20:54:02.484Z,99999.94
2022-08-22T20:59:43.346Z,99999.89
2022-08-22T21:05:04.934Z,99997.42
2022-08-22T21:10:40.247Z,99991.11
2022-08-22T21:15:48.164Z,99990.77
2022-08-22T21:20:52.616Z,99992.00
2022-08-22T21:25:58.165Z,99993.13
2022-08-22T21:31:10.999Z,99983.01
2022-08-22T21:36:17.894Z,99973.93
2022-08-22T21:41:43.681Z,99968.68
2022-08-22T21:46:47.456Z,99964.16
2022-08-22T21:51:53.734Z,99957.80
2022-08-22T21:56:58.581Z,99956.64
2022-08-22T22:02:37.361Z,99953.05
2022-08-22T22:07:44.423Z,99951.00
2022-08-22T22:12:49.558Z,99947.73
2022-08-22T22:17:53.501Z,99942.10
2022-08-22T22:22:56.913Z,99934.59
2022-08-22T22:28:01.142Z,99929.65
2022-08-22T22:33:04.869Z,99928.61
2022-08-22T22:38:09.618Z,99936.34
2022-08-22T22:43:13.238Z,99940.90
2022-08-22T22:48:24.234Z,99943.02
2022-08-22T22:53:38.092Z,99937.18
2022-08-22T22:58:42.262Z,99932.27
2022-08-22T23:03:46.646Z,99928.88
2022-08-22T23:08:50.978Z,99925.92
2022-08-22T23:13:55.150Z,99925.32
2022-08-22T23:18:58.521Z,99922.32
2022-08-22T23:24:02.244Z,99915.86
2022-08-22T23:29:06.887Z,99905.44
2022-08-22T23:34:14.131Z,99908.67
2022-08-22T23:39:18.682Z,99905.98
2022-08-22T23:44:25.113Z,99911.20
2022-08-22T23:49:30.173Z,99912.08
2022-08-22T23:54:34.294Z,99909.45
2022-08-22T23:59:38.937Z,99907.14
